METAR Data
IDs: Format: Raw Decoded Include TAF

Data at: 1755 UTC 21 Sep 2018

KCXO 211753Z 16008KT 10SM FEW026 32/27 A2996 RMK AO2 SLP142 60001 T03170267 10317 20244 58009
KCXO 211715Z 15009KT 10SM FEW020 SCT028 30/26 A2998 RMK AO2 LTG DSNT S T03000261
KCXO 211706Z 14008KT 10SM SCT021 BKN028 30/27 A2999 RMK AO2 T03000267
KCXO 211653Z 14007KT 10SM FEW015 FEW021 SCT028 30/27 A2999 RMK AO2 SLP152 T03000267
KCXO 211617Z 14007KT 10SM SCT014 BKN021 29/27 A3000 RMK AO2 T02890272
KCXO 211553Z 14009KT 10SM BKN012 29/27 A2999 RMK AO2 SLP153 T02940272
KCXO 211532Z 12004KT 10SM BKN012 28/27 A2999 RMK AO2 T02830272
KCXO 211453Z 12004KT 10SM CLR 27/27 A2999 RMK AO2 SLP152 60001 T02720272 51006
KCXO 211353Z 00000KT 9SM CLR 26/26 A2999 RMK AO2 SLP151 T02610261
KCXO 211320Z 00000KT 8SM FEW003 26/26 A2998 RMK AO2 T02560256
KCXO 211253Z 12003KT 8SM CLR 25/25 A2998 RMK AO2 RAE25 SLP147 P0001 T02500250
KCXO 211153Z 08003KT 6SM -RA BR CLR 24/24 A2997 RMK AO2 RAB29 SLP146 P0001 60002 7//// T02440244 10256 20244 53008
KCXO 211053Z 00000KT 8SM FEW110 24/24 A2997 RMK AO2 RAB22E39 SLP143 P0001 T02440244
KCXO 210953Z AUTO 00000KT 10SM CLR 25/25 A2996 RMK AO2 SLP139 T02500250
KCXO 210853Z AUTO 00000KT 10SM CLR 25/25 A2995 RMK AO2 SLP138 T02500250 56008
KCXO 210753Z AUTO 00000KT 10SM CLR 24/24 A2995 RMK AO2 SLP138 T02440244
KCXO 210653Z AUTO 00000KT 10SM CLR 24/24 A2996 RMK AO2 SLP142 T02440244
KCXO 210553Z AUTO 00000KT 10SM CLR 26/26 A2998 RMK AO2 SLP146 60000 T02560256 10283 20250 403170217 50000
KCXO 210453Z AUTO 14003KT 10SM CLR 26/26 A2998 RMK AO2 SLP149 T02560256
KCXO 210353Z AUTO 13004KT 10SM CLR 26/26 A2998 RMK AO2 SLP148 T02560256
KCXO 210253Z AUTO 12003KT 10SM CLR 26/26 A2997 RMK AO2 SLP146 60000 T02560256 53015
KCXO 210153Z AUTO 00000KT 10SM CLR 26/26 A2996 RMK AO2 SLP141 T02560256
KCXO 210053Z 21004KT 10SM FEW047 SCT070 27/26 A2994 RMK AO2 RAB10E45 SLP135 P0000 T02670261
KCXO 202353Z 14005KT 10SM FEW110 28/26 A2993 RMK AO2 SLP131 6//// T02830256 10306 20261 55003
KCXO 202253Z 14007KT 10SM CLR 29/25 A2993 RMK AO2 LTG DSNT SW RAB19E28 SLP130 T02940250
KCXO 202153Z 16006KT 10SM CLR 28/26 A2993 RMK AO2 LTG DSNT W RAB2056E15 SLP131 T02830261 PNO
KCXO 202118Z 19005KT 10SM FEW039 SCT090 28/25 A2993 RMK AO2 LTG DSNT SE-W RAB2056E15 T02780250 PNO
KCXO 202053Z 15005KT 10SM VCTS FEW095 SCT110 28/24 A2994 RMK AO2 LTG DSNT SE-W RAB42E51 SLP134 6//// T02830244 56015 PNO
KCXO 202018Z 15007KT 10SM VCTS CLR 29/26 A2994 RMK AO2 LTG DSNT S-W T02940256 PNO
KCXO 201953Z 13006KT 10SM CLR 29/26 A2995 RMK AO2 LTG DSNT S AND NW TSE1856 SLP137 T02940256 PNO $
KCXO 201936Z 15006KT 10SM CLR 29/27 A2996 RMK AO2 LTG DSNT SE AND S AND NW TSE1856 T02890267 PNO $
KCXO 201902Z 15004KT 10SM VCTS FEW060 28/26 A2997 RMK AO2 LTG DSNT SW-N TSE1856 T02780261 PNO $
KCXO 201853Z 14005KT 10SM TS FEW024 SCT060 BKN070 27/26 A2996 RMK AO2 LTG DSNT SW-N RAB16E44 TSB1755 PRESFR SLP143 T02670261 PNO $
KCXO 201801Z 12006KT 10SM TS FEW035 31/25 A2997 RMK AO2 LTG DSNT SE AND S TSB1755 T03060250
KCXO 201753Z 14007KT 10SM VCTS FEW035 31/24 A2998 RMK AO2 LTG DSNT SE AND S SLP149 T03060244 10317 20222 58007
KCXO 201653Z 15007KT 10SM FEW030 SCT036 31/25 A3000 RMK AO2 LTG DSNT S SLP156 T03060250
KCXO 201600Z 19006KT 10SM SCT025 BKN031 BKN039 29/26 A3001 RMK AO2 T02940256
KCXO 201553Z 16009KT 10SM SCT025 BKN029 BKN036 30/26 A3001 RMK AO2 SLP158 T03000256
KCXO 201453Z 15007KT 10SM FEW014 29/26 A3000 RMK AO2 SLP156 T02890261 52015
KCXO 201353Z 14003KT 10SM CLR 27/26 A2999 RMK AO2 SLP151 T02670256
KCXO 201253Z 00000KT 6SM BR CLR 23/23 A2997 RMK AO2 SLP147 T02280228
KCXO 201153Z 00000KT 6SM BR CLR 22/22 A2996 RMK AO2 SLP140 T02220222 10233 20217 55000
KCXO 201053Z 00000KT 6SM BR CLR 22/22 A2995 RMK AO2 SLP139 T02170217
KCXO 200953Z AUTO 00000KT 6SM BR CLR 23/23 A2995 RMK AO2 SLP137 T02280228
KCXO 200853Z AUTO 00000KT 8SM CLR 23/23 A2996 RMK AO2 SLP141 T02280228 58006
KCXO 200753Z AUTO 00000KT 7SM CLR 22/22 A2996 RMK AO2 SLP142 T02220222
KCXO 200653Z AUTO 00000KT 6SM BR CLR 22/22 A2998 RMK AO2 SLP147 T02220222